createdAt,value
2023-03-26T00:03:37.348Z,12.02
2023-03-26T00:06:09.145Z,13.55
2023-03-26T00:08:37.175Z,13.40
2023-03-26T00:11:05.281Z,13.63
2023-03-26T00:13:33.164Z,22.60
2023-03-26T00:16:00.665Z,12.70
2023-03-26T00:18:31.546Z,11.15
2023-03-26T00:20:59.576Z,15.10
2023-03-26T00:23:28.248Z,14.52
2023-03-26T00:28:24.354Z,20.38
2023-03-26T00:30:58.877Z,17.67
2023-03-26T00:33:25.814Z,11.05
2023-03-26T00:35:58.809Z,10.75
2023-03-26T00:38:28.311Z,13.82
2023-03-26T00:40:56.516Z,16.80
2023-03-26T00:43:23.781Z,11.77
2023-03-26T00:45:52.181Z,11.10
2023-03-26T00:48:19.469Z,9.70
2023-03-26T00:50:47.476Z,14.85
2023-03-26T00:53:15.980Z,12.43
2023-03-26T00:55:45.911Z,11.27
2023-03-26T00:58:14.082Z,12.60
2023-03-26T01:00:51.566Z,10.77
2023-03-26T01:03:27.735Z,14.88
2023-03-26T01:06:04.532Z,9.18
2023-03-26T01:08:46.751Z,11.38
2023-03-26T01:11:16.585Z,10.88
2023-03-26T01:13:51.379Z,8.00
2023-03-26T01:16:37.089Z,13.02
2023-03-26T01:19:12.974Z,11.18
2023-03-26T01:21:39.977Z,12.00
2023-03-26T01:24:09.059Z,7.65
2023-03-26T01:26:47.610Z,9.60
2023-03-26T01:32:47.492Z,12.55
2023-03-26T01:35:34.803Z,8.55
2023-03-26T01:38:23.414Z,10.48
2023-03-26T01:41:13.495Z,9.60
2023-03-26T01:43:54.122Z,13.20
2023-03-26T01:46:23.590Z,12.30
2023-03-26T01:48:50.905Z,8.02
2023-03-26T01:51:29.504Z,9.23
2023-03-26T01:56:23.675Z,12.05
2023-03-26T01:59:09.568Z,8.45
2023-03-26T02:01:45.985Z,7.78
2023-03-26T02:04:18.937Z,8.93
2023-03-26T02:06:48.442Z,11.88
2023-03-26T02:09:19.308Z,9.27
2023-03-26T02:11:47.544Z,7.93
2023-03-26T02:14:15.652Z,13.95
2023-03-26T02:16:46.842Z,7.93
2023-03-26T02:19:21.778Z,12.55
2023-03-26T02:21:51.417Z,17.25
2023-03-26T02:24:20.670Z,17.50
2023-03-26T02:26:47.374Z,9.35
2023-03-26T02:29:19.340Z,12.35
2023-03-26T02:31:49.937Z,10.40
2023-03-26T02:34:17.250Z,7.47
2023-03-26T02:36:44.017Z,17.05
2023-03-26T02:39:12.017Z,7.00
2023-03-26T02:41:40.498Z,7.78
2023-03-26T02:44:07.188Z,11.93
2023-03-26T02:46:34.081Z,12.20
2023-03-26T02:49:00.879Z,15.35
2023-03-26T02:51:27.574Z,13.43
2023-03-26T02:53:56.020Z,11.50
2023-03-26T02:56:22.697Z,11.30
2023-03-26T02:58:49.462Z,18.55
2023-03-26T03:01:18.429Z,21.38
2023-03-26T03:03:48.473Z,19.23
2023-03-26T03:06:19.746Z,14.70
2023-03-26T03:08:46.639Z,28.95
2023-03-26T03:11:16.563Z,14.02
2023-03-26T03:13:44.451Z,25.80
2023-03-26T03:16:11.828Z,16.23
2023-03-26T03:18:38.584Z,20.27
2023-03-26T03:21:06.202Z,25.88
2023-03-26T03:23:33.168Z,21.23
2023-03-26T03:26:00.084Z,21.02
2023-03-26T03:28:26.872Z,17.25
2023-03-26T03:30:53.651Z,23.00
2023-03-26T03:33:21.423Z,41.50
2023-03-26T03:35:50.148Z,48.00
2023-03-26T03:40:45.376Z,41.75
2023-03-26T03:43:12.027Z,60.92
2023-03-26T03:45:38.805Z,62.28
2023-03-26T03:48:05.884Z,54.83
2023-03-26T03:50:35.843Z,66.40
2023-03-26T03:53:05.616Z,52.20
2023-03-26T03:55:32.353Z,57.90
2023-03-26T03:57:59.934Z,50.25
2023-03-26T04:00:27.052Z,77.68
2023-03-26T04:02:54.690Z,75.45
2023-03-26T04:05:21.766Z,69.50
2023-03-26T04:07:48.516Z,56.75
2023-03-26T04:10:16.084Z,61.67
2023-03-26T04:12:42.830Z,65.40
2023-03-26T04:15:09.838Z,71.53
2023-03-26T04:17:42.893Z,66.65
2023-03-26T04:20:17.551Z,74.32
2023-03-26T04:22:44.733Z,64.18
2023-03-26T04:25:12.662Z,65.80
2023-03-26T04:27:41.747Z,55.92
2023-03-26T04:30:12.543Z,56.78
2023-03-26T04:32:40.430Z,57.55
2023-03-26T04:35:07.423Z,56.60
2023-03-26T04:37:39.714Z,66.00
2023-03-26T04:40:10.233Z,57.80
2023-03-26T04:42:41.514Z,53.72
2023-03-26T04:45:09.204Z,52.30
2023-03-26T04:47:37.179Z,68.03
2023-03-26T04:50:09.309Z,41.08
2023-03-26T04:52:37.171Z,60.58
2023-03-26T04:55:07.632Z,61.60
2023-03-26T04:57:46.107Z,57.38
2023-03-26T05:00:18.608Z,69.90
2023-03-26T05:02:45.996Z,65.93
2023-03-26T05:05:12.874Z,53.55
2023-03-26T05:07:39.542Z,64.93
2023-03-26T05:10:06.759Z,53.78
2023-03-26T05:12:33.545Z,57.65
2023-03-26T05:15:00.335Z,53.83
2023-03-26T05:17:30.992Z,43.22
2023-03-26T05:19:57.876Z,41.70
2023-03-26T05:22:24.742Z,53.05
2023-03-26T05:24:51.584Z,55.03
2023-03-26T05:27:20.191Z,50.58
2023-03-26T05:29:49.029Z,58.13
2023-03-26T05:32:15.919Z,53.13
2023-03-26T05:34:45.003Z,52.08
2023-03-26T05:37:11.733Z,56.60
2023-03-26T05:39:38.569Z,60.58
2023-03-26T05:42:07.756Z,53.78
2023-03-26T05:44:34.997Z,73.63
2023-03-26T05:47:03.615Z,77.85
2023-03-26T05:49:30.635Z,51.58
2023-03-26T05:51:58.327Z,65.70
2023-03-26T05:54:25.499Z,64.80
2023-03-26T05:56:52.826Z,66.45
2023-03-26T05:59:20.036Z,72.68
2023-03-26T06:01:47.247Z,70.90
2023-03-26T06:04:16.051Z,60.88
2023-03-26T06:06:44.852Z,67.47
2023-03-26T06:11:42.944Z,65.72
2023-03-26T06:14:10.349Z,74.43
2023-03-26T06:16:39.286Z,66.53
2023-03-26T06:19:06.489Z,58.67
2023-03-26T06:21:33.692Z,71.60
2023-03-26T06:24:00.844Z,75.97
2023-03-26T06:26:28.067Z,61.47
2023-03-26T06:28:55.230Z,70.07
2023-03-26T06:31:22.421Z,71.30
2023-03-26T06:33:51.284Z,69.28
2023-03-26T06:36:18.485Z,72.78
2023-03-26T06:38:45.863Z,72.20
2023-03-26T06:41:13.163Z,69.40
2023-03-26T06:43:40.392Z,62.35
2023-03-26T06:46:07.708Z,59.78
2023-03-26T06:48:34.862Z,65.45
2023-03-26T06:51:02.968Z,77.30
2023-03-26T06:53:30.339Z,72.25
2023-03-26T06:55:57.442Z,67.30
2023-03-26T06:58:25.693Z,61.25
2023-03-26T07:00:56.333Z,70.30
2023-03-26T07:03:24.931Z,69.72
2023-03-26T07:05:53.084Z,67.50
2023-03-26T07:08:20.785Z,69.55
2023-03-26T07:10:47.908Z,63.90
2023-03-26T07:13:14.977Z,67.40
2023-03-26T07:15:42.083Z,70.22
2023-03-26T07:18:10.646Z,66.82
2023-03-26T07:20:37.896Z,67.93
2023-03-26T07:23:05.134Z,75.80
2023-03-26T07:25:32.529Z,71.20
2023-03-26T07:28:05.590Z,57.15
2023-03-26T07:30:32.741Z,64.22
2023-03-26T07:33:02.478Z,67.97
2023-03-26T07:35:33.490Z,62.15
2023-03-26T07:38:12.125Z,74.35
2023-03-26T07:43:08.348Z,68.97
2023-03-26T07:45:40.777Z,80.38
2023-03-26T07:48:28.189Z,69.43
2023-03-26T07:50:57.021Z,73.10
2023-03-26T07:53:24.600Z,69.72
2023-03-26T07:56:01.024Z,78.25
2023-03-26T07:58:41.861Z,83.78
2023-03-26T08:01:15.738Z,91.40
2023-03-26T08:03:46.473Z,88.43
2023-03-26T08:06:19.874Z,81.70
2023-03-26T08:08:53.352Z,81.65
2023-03-26T08:11:29.190Z,96.97
2023-03-26T08:14:01.462Z,87.13
2023-03-26T08:16:32.096Z,88.22
2023-03-26T08:19:17.951Z,105.05
2023-03-26T08:21:50.029Z,96.82
2023-03-26T08:24:20.222Z,71.78
2023-03-26T08:26:52.249Z,62.35
2023-03-26T08:29:42.138Z,59.20
2023-03-26T08:32:13.692Z,57.42
2023-03-26T08:34:41.107Z,55.80
2023-03-26T08:37:10.712Z,47.97
2023-03-26T08:39:39.384Z,70.85
2023-03-26T08:42:26.893Z,66.85
2023-03-26T08:45:12.810Z,57.25
2023-03-26T08:47:55.688Z,54.15
2023-03-26T08:50:52.289Z,56.63
2023-03-26T08:53:34.405Z,44.88
2023-03-26T08:56:20.514Z,51.83
2023-03-26T08:59:01.391Z,50.08
2023-03-26T09:01:28.650Z,46.42
2023-03-26T09:04:14.354Z,40.53
2023-03-26T09:06:41.497Z,39.92
2023-03-26T09:09:21.174Z,32.45
2023-03-26T09:11:57.511Z,33.95
2023-03-26T09:14:42.716Z,31.15
2023-03-26T09:17:25.746Z,24.10
2023-03-26T09:20:21.852Z,32.65
2023-03-26T09:22:57.087Z,34.40
2023-03-26T09:25:42.898Z,24.15
2023-03-26T09:28:36.403Z,27.45
2023-03-26T09:31:38.965Z,22.92
2023-03-26T09:34:44.331Z,24.35
2023-03-26T09:37:56.704Z,25.48
2023-03-26T09:40:53.303Z,29.50
2023-03-26T09:43:58.053Z,25.67
2023-03-26T09:47:06.314Z,22.23
2023-03-26T09:50:08.396Z,24.20
2023-03-26T09:52:59.750Z,23.13
2023-03-26T09:56:09.031Z,15.27
2023-03-26T09:59:15.064Z,28.17
2023-03-26T10:01:41.751Z,12.95
2023-03-26T10:04:40.365Z,20.05
2023-03-26T10:07:44.862Z,16.13
2023-03-26T10:10:35.708Z,17.58
2023-03-26T10:13:17.448Z,16.27
2023-03-26T10:16:02.979Z,16.17
2023-03-26T10:18:55.034Z,17.33
2023-03-26T10:21:43.616Z,12.43
2023-03-26T10:27:10.113Z,15.15
2023-03-26T10:29:57.191Z,16.70
2023-03-26T10:32:50.361Z,17.63
2023-03-26T10:35:45.944Z,17.42
2023-03-26T10:38:36.236Z,20.00
2023-03-26T10:41:32.251Z,12.93
2023-03-26T10:44:24.579Z,16.05
2023-03-26T10:47:28.720Z,16.48
2023-03-26T10:50:23.189Z,24.50
2023-03-26T10:52:57.548Z,24.27
2023-03-26T10:55:48.285Z,16.77
2023-03-26T10:58:24.426Z,12.70
2023-03-26T11:00:59.226Z,14.07
2023-03-26T11:03:52.022Z,15.43
2023-03-26T11:06:26.120Z,15.27
2023-03-26T11:09:27.137Z,21.80
2023-03-26T11:12:01.040Z,13.82
2023-03-26T11:14:42.121Z,20.30
2023-03-26T11:17:39.346Z,18.33
2023-03-26T11:20:33.991Z,16.77
2023-03-26T11:23:06.938Z,12.35
2023-03-26T11:25:55.865Z,12.40
2023-03-26T11:28:42.509Z,17.05
2023-03-26T11:31:53.795Z,12.48
2023-03-26T11:34:27.701Z,14.43
2023-03-26T11:36:57.518Z,15.25
2023-03-26T11:39:29.908Z,11.20
2023-03-26T11:42:14.198Z,23.08
2023-03-26T11:44:46.535Z,12.65
2023-03-26T11:47:19.410Z,11.65
2023-03-26T11:49:48.493Z,13.77
2023-03-26T11:52:16.144Z,14.57
2023-03-26T11:54:43.434Z,19.77
2023-03-26T11:57:16.031Z,18.58
2023-03-26T11:59:56.434Z,20.13
2023-03-26T12:02:32.538Z,12.68
2023-03-26T12:05:15.677Z,21.33
2023-03-26T12:08:04.233Z,20.83
2023-03-26T12:13:07.316Z,15.77
2023-03-26T12:15:34.108Z,11.95
2023-03-26T12:18:28.359Z,16.70
2023-03-26T12:21:04.773Z,11.95
2023-03-26T12:23:56.307Z,17.55
2023-03-26T12:26:41.245Z,19.17
2023-03-26T12:29:16.512Z,12.43
2023-03-26T12:31:51.508Z,13.88
2023-03-26T12:34:23.891Z,12.90
2023-03-26T12:36:56.577Z,13.32
2023-03-26T12:40:10.129Z,15.32
2023-03-26T12:44:47.301Z,14.10
2023-03-26T12:45:14.855Z,18.10
2023-03-26T12:47:58.863Z,19.80
2023-03-26T12:50:44.749Z,15.10
2023-03-26T12:53:43.261Z,15.75
2023-03-26T12:56:38.507Z,18.63
2023-03-26T12:59:48.767Z,13.20
2023-03-26T13:02:45.191Z,14.65
2023-03-26T13:05:36.658Z,18.48
2023-03-26T13:08:21.671Z,12.10
2023-03-26T13:11:06.109Z,15.43
2023-03-26T13:13:57.394Z,13.73
2023-03-26T13:17:02.740Z,11.48
2023-03-26T13:19:48.591Z,10.40
2023-03-26T13:22:34.184Z,18.45
2023-03-26T13:25:32.920Z,12.43
2023-03-26T13:28:35.759Z,9.63
2023-03-26T13:31:24.491Z,12.23
2023-03-26T13:33:57.820Z,11.70
2023-03-26T13:36:42.505Z,12.50
2023-03-26T13:39:22.120Z,19.98
2023-03-26T13:42:12.313Z,7.45
2023-03-26T13:45:05.685Z,11.82
2023-03-26T13:47:41.187Z,11.65
2023-03-26T13:50:32.676Z,15.25
2023-03-26T13:53:08.180Z,10.40
2023-03-26T13:55:47.456Z,17.30
2023-03-26T13:58:38.550Z,9.90
2023-03-26T14:01:18.783Z,8.50
2023-03-26T14:04:33.210Z,15.40
2023-03-26T14:07:21.076Z,9.60
2023-03-26T14:09:51.373Z,11.27
2023-03-26T14:12:49.278Z,15.18
2023-03-26T14:15:24.992Z,13.32
2023-03-26T14:17:54.668Z,6.07
2023-03-26T14:20:40.222Z,10.98
2023-03-26T14:23:31.800Z,8.43
2023-03-26T14:26:16.938Z,12.13
2023-03-26T14:29:02.096Z,8.93
2023-03-26T14:31:48.115Z,11.52
2023-03-26T14:34:34.497Z,11.20
2023-03-26T14:37:06.117Z,13.98
2023-03-26T14:39:52.621Z,5.55
2023-03-26T14:42:25.870Z,10.88
2023-03-26T14:44:53.008Z,9.23
2023-03-26T14:47:22.049Z,8.85
2023-03-26T14:50:15.668Z,6.28
2023-03-26T14:53:01.364Z,11.82
2023-03-26T14:55:53.608Z,6.35
2023-03-26T14:58:51.201Z,15.70
2023-03-26T15:01:26.768Z,9.03
2023-03-26T15:04:47.247Z,10.63
2023-03-26T15:07:32.120Z,10.40
2023-03-26T15:10:30.276Z,10.15
2023-03-26T15:13:25.312Z,10.80
2023-03-26T15:16:33.073Z,8.68
2023-03-26T15:19:30.854Z,9.18
2023-03-26T15:22:16.388Z,9.23
2023-03-26T15:25:01.675Z,8.43
2023-03-26T15:28:06.489Z,8.55
2023-03-26T15:31:00.442Z,10.38
2023-03-26T15:33:27.061Z,8.18
2023-03-26T15:35:57.734Z,7.65
2023-03-26T15:38:43.147Z,7.63
2023-03-26T15:41:31.189Z,16.98
2023-03-26T15:46:30.956Z,12.63
2023-03-26T15:49:16.482Z,16.23
2023-03-26T15:51:58.906Z,10.27
2023-03-26T15:54:27.370Z,8.80
2023-03-26T15:57:00.256Z,13.50
2023-03-26T15:59:47.470Z,12.43
2023-03-26T16:02:41.583Z,14.93
2023-03-26T16:05:34.829Z,12.30
2023-03-26T16:08:23.306Z,8.07
2023-03-26T16:10:57.605Z,8.60
2023-03-26T16:13:24.492Z,9.23
2023-03-26T16:16:22.607Z,10.27
2023-03-26T16:19:21.905Z,8.68
2023-03-26T16:22:05.826Z,8.50
2023-03-26T16:24:39.949Z,11.77
2023-03-26T16:27:27.754Z,15.82
2023-03-26T16:30:00.220Z,15.43
2023-03-26T16:33:12.594Z,12.65
2023-03-26T16:35:39.922Z,5.57
2023-03-26T16:38:14.872Z,12.88
2023-03-26T16:40:56.803Z,10.65
2023-03-26T16:43:51.992Z,8.88
2023-03-26T16:46:29.235Z,10.80
2023-03-26T16:49:16.477Z,7.78
2023-03-26T16:51:43.740Z,9.38
2023-03-26T16:54:25.111Z,8.90
2023-03-26T16:57:01.449Z,7.18
2023-03-26T17:00:06.188Z,10.68
2023-03-26T17:02:52.735Z,9.57
2023-03-26T17:05:41.677Z,5.97
2023-03-26T17:08:35.640Z,6.13
2023-03-26T17:11:27.821Z,9.98
2023-03-26T17:14:07.370Z,11.25
2023-03-26T17:16:38.681Z,7.63
2023-03-26T17:19:15.215Z,8.60
2023-03-26T17:22:03.761Z,16.48
2023-03-26T17:27:24.935Z,9.88
2023-03-26T17:30:07.479Z,7.25
2023-03-26T17:33:26.751Z,7.32
2023-03-26T17:36:21.354Z,7.78
2023-03-26T17:38:48.145Z,8.70
2023-03-26T17:41:54.392Z,7.38
2023-03-26T17:44:51.811Z,8.68
2023-03-26T17:47:29.531Z,8.10
2023-03-26T17:50:22.550Z,7.83
2023-03-26T17:52:58.842Z,9.18
2023-03-26T17:55:32.304Z,11.30
2023-03-26T17:58:05.175Z,7.07
2023-03-26T18:00:44.635Z,8.20
2023-03-26T18:03:18.409Z,9.52
2023-03-26T18:05:47.170Z,11.88
2023-03-26T18:11:19.955Z,10.57
2023-03-26T18:14:04.902Z,7.18
2023-03-26T18:16:37.313Z,7.22
2023-03-26T18:19:19.622Z,8.80
2023-03-26T18:21:51.955Z,8.73
2023-03-26T18:24:31.349Z,7.40
2023-03-26T18:27:02.716Z,11.77
2023-03-26T18:29:32.062Z,6.70
2023-03-26T18:32:22.230Z,9.43
2023-03-26T18:34:53.746Z,8.18
2023-03-26T18:37:24.380Z,9.55
2023-03-26T18:40:11.730Z,10.82
2023-03-26T18:42:45.543Z,8.30
2023-03-26T18:45:33.629Z,9.10
2023-03-26T18:48:04.750Z,7.28
2023-03-26T18:50:37.337Z,7.78
2023-03-26T18:53:06.680Z,7.40
2023-03-26T18:55:39.537Z,6.28
2023-03-26T18:58:28.186Z,6.55
2023-03-26T19:01:04.834Z,9.15
2023-03-26T19:03:36.142Z,7.53
2023-03-26T19:06:04.647Z,8.77
2023-03-26T19:08:35.151Z,9.15
2023-03-26T19:11:04.699Z,6.32
2023-03-26T19:13:32.590Z,8.52
2023-03-26T19:15:59.530Z,9.00
2023-03-26T19:18:28.268Z,8.05
2023-03-26T19:23:32.218Z,11.70
2023-03-26T19:26:01.723Z,7.35
2023-03-26T19:28:32.752Z,9.52
2023-03-26T19:31:09.029Z,5.78
2023-03-26T19:33:42.459Z,5.13
2023-03-26T19:36:19.616Z,7.70
2023-03-26T19:39:09.827Z,8.77
2023-03-26T19:41:43.425Z,8.23
2023-03-26T19:44:29.967Z,11.00
2023-03-26T19:47:13.802Z,7.38
2023-03-26T19:49:42.342Z,5.65
2023-03-26T19:52:14.862Z,9.98
2023-03-26T19:57:36.372Z,7.25
2023-03-26T20:00:09.202Z,7.70
2023-03-26T20:02:36.330Z,10.60
2023-03-26T20:05:03.106Z,5.72
2023-03-26T20:07:35.502Z,5.40
2023-03-26T20:10:05.705Z,6.80
2023-03-26T20:12:32.846Z,5.05
2023-03-26T20:15:00.719Z,8.23
2023-03-26T20:17:30.820Z,7.97
2023-03-26T20:19:57.816Z,5.35
2023-03-26T20:22:24.544Z,6.47
2023-03-26T20:24:51.691Z,5.18
2023-03-26T20:27:19.239Z,7.57
2023-03-26T20:29:46.495Z,7.93
2023-03-26T20:32:26.936Z,8.80
2023-03-26T20:34:54.088Z,6.78
2023-03-26T20:37:20.875Z,9.48
2023-03-26T20:39:49.674Z,7.55
2023-03-26T20:42:17.058Z,4.57
2023-03-26T20:44:45.285Z,13.15
2023-03-26T20:47:14.585Z,7.78
2023-03-26T20:49:43.143Z,7.53
2023-03-26T20:52:13.493Z,6.20
2023-03-26T20:54:40.762Z,8.50
2023-03-26T20:57:09.506Z,5.57
2023-03-26T21:02:03.555Z,7.38
2023-03-26T21:04:32.965Z,6.60
2023-03-26T21:07:17.596Z,15.02
2023-03-26T21:10:20.215Z,7.88
2023-03-26T21:13:07.022Z,6.82
2023-03-26T21:16:12.090Z,10.32
2023-03-26T21:19:03.591Z,8.02
2023-03-26T21:21:59.223Z,5.97
2023-03-26T21:24:59.023Z,9.07
2023-03-26T21:27:33.783Z,12.73
2023-03-26T21:30:01.018Z,11.70
2023-03-26T21:32:29.201Z,5.95
2023-03-26T21:34:59.337Z,11.77
2023-03-26T21:37:27.122Z,14.48
2023-03-26T21:39:54.464Z,7.47
2023-03-26T21:42:21.823Z,9.07
2023-03-26T21:44:49.224Z,5.00
2023-03-26T21:47:16.595Z,9.85
2023-03-26T21:49:43.833Z,10.02
2023-03-26T21:52:15.406Z,5.90
2023-03-26T21:54:43.838Z,7.38
2023-03-26T21:57:23.474Z,7.78
2023-03-26T22:00:11.434Z,5.88
2023-03-26T22:03:01.379Z,6.65
2023-03-26T22:05:43.794Z,6.13
2023-03-26T22:08:20.599Z,4.68
2023-03-26T22:10:47.985Z,6.28
2023-03-26T22:13:14.736Z,8.60
2023-03-26T22:15:41.563Z,7.47
2023-03-26T22:18:08.317Z,6.72
2023-03-26T22:20:35.127Z,7.28
2023-03-26T22:23:01.922Z,10.43
2023-03-26T22:25:28.890Z,7.60
2023-03-26T22:27:57.562Z,9.93
2023-03-26T22:32:51.730Z,3.00
2023-03-26T22:35:19.541Z,9.05
2023-03-26T22:37:47.448Z,6.55
2023-03-26T22:40:14.257Z,7.37
2023-03-26T22:42:41.956Z,6.63
2023-03-26T22:45:09.473Z,7.13
2023-03-26T22:47:40.137Z,6.05
2023-03-26T22:50:08.272Z,13.60
2023-03-26T22:55:04.737Z,6.63
2023-03-26T22:57:31.509Z,3.67
2023-03-26T23:00:07.670Z,4.00
2023-03-26T23:02:34.557Z,9.98
2023-03-26T23:05:01.422Z,5.20
2023-03-26T23:07:34.070Z,6.65
2023-03-26T23:10:02.845Z,5.68
2023-03-26T23:14:57.087Z,5.40
2023-03-26T23:17:24.688Z,3.10
2023-03-26T23:19:51.894Z,7.53
2023-03-26T23:22:20.045Z,5.50
2023-03-26T23:24:47.234Z,6.22
2023-03-26T23:27:14.464Z,3.85
2023-03-26T23:29:45.742Z,2.45
2023-03-26T23:32:24.532Z,4.65
2023-03-26T23:34:52.806Z,6.28
2023-03-26T23:37:23.221Z,6.25
2023-03-26T23:39:51.364Z,6.38
2023-03-26T23:42:29.061Z,6.07
2023-03-26T23:44:57.115Z,5.00
2023-03-26T23:47:24.415Z,5.93
2023-03-26T23:49:51.322Z,8.45
2023-03-26T23:52:18.779Z,3.78
2023-03-26T23:54:45.961Z,7.15
2023-03-26T23:57:16.210Z,12.75
2023-03-26T23:59:43.620Z,8.30
